Time;durP1;ratioP1;P1;durP2;ratioP2;P2;SDS_P1;SDS_P2;PMS_P1;PMS_P2;Temp;Humidity;BMP_temperature;BMP_pressure;BME280_temperature;BME280_humidity;BME280_pressure;Samples;Min_cycle;Max_cycle;Signal;HPM_P1;HPM_P2
2021/03/06 00:02:18;;;;;;;4.53;2.00;;;;;;;;;;5095478;28;20451;-70
2021/03/06 00:04:46;;;;;;;5.03;1.70;;;;;;;;;;5096937;28;20463;-71
2021/03/06 00:07:14;;;;;;;3.87;1.53;;;;;;;;;;5095842;28;20460;-70
2021/03/06 00:09:41;;;;;;;4.33;1.90;;;;;;;;;;5115151;28;20759;-70
2021/03/06 00:12:10;;;;;;;3.30;1.90;;;;;;;;;;5117118;28;20525;-70
2021/03/06 00:14:38;;;;;;;8.03;2.40;;;;;;;;;;5115875;28;20475;-70
2021/03/06 00:17:05;;;;;;;3.33;1.97;;;;;;;;;;5117380;28;21051;-70
2021/03/06 00:19:35;;;;;;;4.93;2.10;;;;;;;;;;5117345;28;20475;-70
2021/03/06 00:22:03;;;;;;;8.20;2.50;;;;;;;;;;5116953;28;20447;-71
2021/03/06 00:24:30;;;;;;;4.90;1.90;;;;;;;;;;5116589;28;20452;-70
2021/03/06 00:26:58;;;;;;;4.53;2.23;;;;;;;;;;5117367;28;20462;-70
2021/03/06 00:29:26;;;;;;;4.53;1.57;;;;;;;;;;5116083;28;20463;-70
2021/03/06 00:31:54;;;;;;;8.47;2.10;;;;;;;;;;5117313;28;20743;-71
2021/03/06 00:34:23;;;;;;;4.80;1.43;;;;;;;;;;5109235;28;20487;-71
2021/03/06 00:36:51;;;;;;;3.07;2.00;;;;;;;;;;5116875;28;20525;-71
2021/03/06 00:39:19;;;;;;;6.87;2.00;;;;;;;;;;5105086;28;20464;-71
2021/03/06 00:41:46;;;;;;;5.07;1.77;;;;;;;;;;5098061;28;20452;-71
2021/03/06 00:44:22;;;;;;;6.63;2.17;;;;;;;;;;5103386;28;20460;-72
2021/03/06 00:46:51;;;;;;;4.90;1.50;;;;;;;;;;5117909;28;20483;-70
2021/03/06 00:49:19;;;;;;;3.57;1.73;;;;;;;;;;5119978;28;20528;-71
2021/03/06 00:51:46;;;;;;;3.90;2.00;;;;;;;;;;5119936;28;20541;-71
2021/03/06 00:54:15;;;;;;;4.90;1.50;;;;;;;;;;5120361;28;20573;-71
2021/03/06 00:56:43;;;;;;;2.73;1.50;;;;;;;;;;5120276;28;20460;-72
2021/03/06 00:59:11;;;;;;;5.17;1.60;;;;;;;;;;5121010;28;20448;-72
2021/03/06 01:01:39;;;;;;;4.53;1.80;;;;;;;;;;5120339;28;20474;-70
2021/03/06 01:04:07;;;;;;;4.87;2.00;;;;;;;;;;5120077;28;20444;-72
2021/03/06 01:06:35;;;;;;;5.47;1.87;;;;;;;;;;5121152;28;20467;-72
2021/03/06 01:09:02;;;;;;;4.80;1.67;;;;;;;;;;5120104;28;20491;-73
2021/03/06 01:11:31;;;;;;;3.70;1.60;;;;;;;;;;5120359;28;20958;-72
2021/03/06 01:13:59;;;;;;;3.80;2.83;;;;;;;;;;5120696;28;20467;-72
2021/03/06 01:16:26;;;;;;;3.50;1.10;;;;;;;;;;5119920;28;20802;-71
2021/03/06 01:18:54;;;;;;;2.50;1.40;;;;;;;;;;5120896;28;20545;-71
2021/03/06 01:21:21;;;;;;;5.33;2.10;;;;;;;;;;5120830;28;20453;-71
2021/03/06 01:23:49;;;;;;;4.20;1.80;;;;;;;;;;5119869;28;20451;-71
2021/03/06 01:26:18;;;;;;;2.83;1.47;;;;;;;;;;5119991;28;20448;-71
2021/03/06 01:28:47;;;;;;;3.37;1.97;;;;;;;;;;5119799;28;20459;-71
2021/03/06 01:31:15;;;;;;;4.10;2.10;;;;;;;;;;5119053;28;20972;-72
2021/03/06 01:33:43;;;;;;;2.67;1.27;;;;;;;;;;5120226;28;20464;-71
2021/03/06 01:36:11;;;;;;;3.80;1.10;;;;;;;;;;5118825;28;20524;-71
2021/03/06 01:38:41;;;;;;;5.30;2.70;;;;;;;;;;5119613;28;20528;-71
2021/03/06 01:41:09;;;;;;;6.83;1.53;;;;;;;;;;5119921;28;20542;-72
2021/03/06 01:43:37;;;;;;;3.23;1.47;;;;;;;;;;5119580;28;20550;-71
2021/03/06 01:46:06;;;;;;;5.40;1.67;;;;;;;;;;5119949;28;20443;-71
2021/03/06 01:48:33;;;;;;;6.67;1.83;;;;;;;;;;5119778;28;20455;-71
2021/03/06 01:51:02;;;;;;;3.93;1.70;;;;;;;;;;5119191;28;20471;-71
2021/03/06 01:53:30;;;;;;;6.47;1.93;;;;;;;;;;5120014;28;20483;-71
2021/03/06 01:56:01;;;;;;;3.60;1.50;;;;;;;;;;5118685;28;20533;-71
2021/03/06 01:58:28;;;;;;;2.40;1.60;;;;;;;;;;5119106;28;20754;-71
2021/03/06 02:00:56;;;;;;;4.00;1.50;;;;;;;;;;5119009;28;20447;-71
2021/03/06 02:03:25;;;;;;;6.67;2.63;;;;;;;;;;5119050;28;20451;-71
2021/03/06 02:05:53;;;;;;;8.30;2.30;;;;;;;;;;5119159;28;20454;-71
2021/03/06 02:08:21;;;;;;;4.53;1.00;;;;;;;;;;5118789;28;20486;-71
2021/03/06 02:10:50;;;;;;;4.27;1.40;;;;;;;;;;5119225;28;20542;-71
2021/03/06 02:13:35;;;;;;;3.93;1.50;;;;;;;;;;5119944;28;20463;-71
2021/03/06 02:16:11;;;;;;;4.60;1.30;;;;;;;;;;5113337;28;20487;-71
2021/03/06 02:18:41;;;;;;;3.23;1.43;;;;;;;;;;5118758;28;20451;-71
2021/03/06 02:21:14;;;;;;;4.23;1.43;;;;;;;;;;5119241;28;20452;-71
2021/03/06 02:24:00;;;;;;;2.57;1.27;;;;;;;;;;5119550;28;20498;-71
2021/03/06 02:26:29;;;;;;;6.57;1.63;;;;;;;;;;5118549;28;20443;-71
2021/03/06 02:29:04;;;;;;;4.17;1.67;;;;;;;;;;5119215;28;20455;-71
2021/03/06 02:31:34;;;;;;;6.23;1.80;;;;;;;;;;5118884;28;20451;-71
2021/03/06 02:34:03;;;;;;;2.40;1.30;;;;;;;;;;5117782;28;20460;-71
2021/03/06 02:36:33;;;;;;;3.47;1.23;;;;;;;;;;5119287;28;20448;-71
2021/03/06 02:39:03;;;;;;;2.77;1.23;;;;;;;;;;5120014;28;20516;-71
2021/03/06 02:41:33;;;;;;;2.73;1.17;;;;;;;;;;5117897;28;20459;-71
2021/03/06 02:44:02;;;;;;;2.90;1.47;;;;;;;;;;5119620;28;20901;-72
2021/03/06 02:46:30;;;;;;;3.10;1.33;;;;;;;;;;5120148;28;20688;-71
2021/03/06 02:48:59;;;;;;;5.60;1.30;;;;;;;;;;5118538;28;20439;-71
2021/03/06 02:51:26;;;;;;;5.13;1.57;;;;;;;;;;5119099;28;20847;-72
2021/03/06 02:53:54;;;;;;;8.10;2.10;;;;;;;;;;5119097;28;20532;-72
2021/03/06 02:56:22;;;;;;;11.57;2.20;;;;;;;;;;5117769;28;20441;-71
2021/03/06 02:59:13;;;;;;;3.43;1.20;;;;;;;;;;5118984;28;20862;-71
2021/03/06 03:01:48;;;;;;;2.37;1.30;;;;;;;;;;5119125;28;20443;-71
2021/03/06 03:04:20;;;;;;;2.27;1.30;;;;;;;;;;5117426;28;20439;-71
2021/03/06 03:06:48;;;;;;;4.77;1.30;;;;;;;;;;5118894;28;20773;-71
2021/03/06 03:09:20;;;;;;;1.60;1.10;;;;;;;;;;5118920;28;20439;-71
2021/03/06 03:11:51;;;;;;;5.10;1.67;;;;;;;;;;5117693;28;20451;-71
2021/03/06 03:14:20;;;;;;;4.17;1.70;;;;;;;;;;5118219;28;20548;-71
2021/03/06 03:16:51;;;;;;;4.40;1.70;;;;;;;;;;5118157;28;20858;-71
2021/03/06 03:19:26;;;;;;;2.50;1.43;;;;;;;;;;5105764;28;20499;-71
2021/03/06 03:21:55;;;;;;;3.73;1.90;;;;;;;;;;5116208;28;20455;-71
2021/03/06 03:24:23;;;;;;;5.63;1.20;;;;;;;;;;5117074;28;20701;-71
2021/03/06 03:26:51;;;;;;;10.43;2.17;;;;;;;;;;5117531;28;20455;-71
2021/03/06 03:29:19;;;;;;;4.93;1.30;;;;;;;;;;5117362;28;20448;-71
2021/03/06 03:31:47;;;;;;;4.20;1.50;;;;;;;;;;5117528;28;20522;-71
2021/03/06 03:34:17;;;;;;;2.00;1.30;;;;;;;;;;5116839;28;20555;-70
2021/03/06 03:36:46;;;;;;;1.40;0.77;;;;;;;;;;5117079;28;20458;-71
2021/03/06 03:39:13;;;;;;;2.63;1.90;;;;;;;;;;5117218;28;20448;-71
2021/03/06 03:41:42;;;;;;;3.63;1.30;;;;;;;;;;5117880;28;20556;-71
2021/03/06 03:44:10;;;;;;;6.47;2.17;;;;;;;;;;5117804;28;20496;-71
2021/03/06 03:46:40;;;;;;;6.40;1.60;;;;;;;;;;5117248;28;20444;-70
2021/03/06 03:49:14;;;;;;;4.47;2.30;;;;;;;;;;5117523;28;20893;-71
2021/03/06 03:51:42;;;;;;;5.87;1.30;;;;;;;;;;5117530;28;20506;-70
2021/03/06 03:54:11;;;;;;;4.70;1.47;;;;;;;;;;5117130;28;20439;-71
2021/03/06 03:56:39;;;;;;;3.90;1.57;;;;;;;;;;5117272;28;20535;-70
2021/03/06 03:59:07;;;;;;;4.50;1.70;;;;;;;;;;5117325;28;20447;-70
2021/03/06 04:01:44;;;;;;;4.97;1.80;;;;;;;;;;5117498;28;20451;-70
2021/03/06 04:04:22;;;;;;;3.50;2.07;;;;;;;;;;5117126;28;20455;-70
2021/03/06 04:06:52;;;;;;;4.13;2.23;;;;;;;;;;5116487;28;20459;-71
2021/03/06 04:09:22;;;;;;;4.53;1.73;;;;;;;;;;5118256;28;20555;-71
2021/03/06 04:11:52;;;;;;;8.30;1.80;;;;;;;;;;5116415;28;20459;-70
2021/03/06 04:14:20;;;;;;;6.20;1.53;;;;;;;;;;5116874;28;20447;-70
2021/03/06 04:16:48;;;;;;;3.30;1.37;;;;;;;;;;5104539;28;20496;-71
2021/03/06 04:19:16;;;;;;;6.13;1.67;;;;;;;;;;5100591;28;20509;-70
2021/03/06 04:21:46;;;;;;;4.20;2.10;;;;;;;;;;5100409;28;20460;-71
2021/03/06 04:24:14;;;;;;;2.67;1.20;;;;;;;;;;5102750;28;20455;-70
2021/03/06 04:26:43;;;;;;;2.33;1.37;;;;;;;;;;5120845;28;20459;-70
2021/03/06 04:29:10;;;;;;;4.67;1.50;;;;;;;;;;5121288;28;20458;-70
2021/03/06 04:31:38;;;;;;;2.60;1.37;;;;;;;;;;5121283;28;20519;-71
2021/03/06 04:34:05;;;;;;;2.83;1.43;;;;;;;;;;5121046;28;20466;-70
2021/03/06 04:36:33;;;;;;;2.75;1.80;;;;;;;;;;5120346;28;20516;-71
2021/03/06 04:39:00;;;;;;;9.50;1.93;;;;;;;;;;5120413;28;20201;-70
2021/03/06 04:41:28;;;;;;;3.60;1.60;;;;;;;;;;5120898;28;20461;-71
2021/03/06 04:43:57;;;;;;;2.60;1.57;;;;;;;;;;5120506;28;20878;-71
2021/03/06 04:46:24;;;;;;;13.07;1.80;;;;;;;;;;5119870;28;20926;-70
2021/03/06 04:48:52;;;;;;;2.50;1.30;;;;;;;;;;5120405;28;20487;-71
2021/03/06 04:51:20;;;;;;;2.60;1.47;;;;;;;;;;5120312;28;20452;-70
2021/03/06 04:53:48;;;;;;;2.00;1.27;;;;;;;;;;5119899;28;20455;-70
2021/03/06 04:56:16;;;;;;;1.93;1.03;;;;;;;;;;5121291;28;20878;-70
2021/03/06 04:58:44;;;;;;;5.63;1.33;;;;;;;;;;5121167;28;20865;-71
2021/03/06 05:01:12;;;;;;;3.53;1.90;;;;;;;;;;5120123;28;20524;-71
2021/03/06 05:03:40;;;;;;;2.33;1.27;;;;;;;;;;5121214;28;20456;-71
2021/03/06 05:06:36;;;;;;;4.93;1.43;;;;;;;;;;5120596;28;20439;-71
2021/03/06 05:09:03;;;;;;;3.97;2.57;;;;;;;;;;5119799;28;20713;-71
2021/03/06 05:11:31;;;;;;;3.90;2.40;;;;;;;;;;5120422;28;20576;-70
2021/03/06 05:13:59;;;;;;;3.57;2.20;;;;;;;;;;5119840;28;20703;-71
2021/03/06 05:16:28;;;;;;;3.37;1.67;;;;;;;;;;5119825;28;20476;-71
2021/03/06 05:18:56;;;;;;;5.03;1.80;;;;;;;;;;5120962;28;20899;-71
2021/03/06 05:21:24;;;;;;;2.80;1.40;;;;;;;;;;5121181;28;20440;-71
2021/03/06 05:23:53;;;;;;;8.00;2.40;;;;;;;;;;5119380;28;20792;-71
2021/03/06 05:26:20;;;;;;;3.30;1.40;;;;;;;;;;5099165;28;20712;-71
2021/03/06 05:28:48;;;;;;;3.20;1.40;;;;;;;;;;5099522;28;20468;-71
2021/03/06 05:31:16;;;;;;;3.70;1.97;;;;;;;;;;5099964;28;20856;-71
2021/03/06 05:33:44;;;;;;;3.90;1.87;;;;;;;;;;5098977;28;20500;-71
2021/03/06 05:36:12;;;;;;;4.03;1.80;;;;;;;;;;5099359;28;20480;-71
2021/03/06 05:38:39;;;;;;;4.13;2.20;;;;;;;;;;5099493;28;20458;-71
2021/03/06 05:41:06;;;;;;;2.13;1.07;;;;;;;;;;5099278;28;20513;-71
2021/03/06 05:43:34;;;;;;;3.03;1.73;;;;;;;;;;5100077;28;20702;-71
2021/03/06 05:46:01;;;;;;;3.50;1.20;;;;;;;;;;5118401;28;20451;-71
2021/03/06 05:48:29;;;;;;;3.87;1.70;;;;;;;;;;5119369;28;20855;-71
2021/03/06 05:50:57;;;;;;;4.70;1.87;;;;;;;;;;5119913;28;20458;-71
2021/03/06 05:53:26;;;;;;;4.27;1.80;;;;;;;;;;5120006;28;20449;-71
2021/03/06 05:55:55;;;;;;;5.53;1.50;;;;;;;;;;5119018;28;20480;-71
2021/03/06 05:58:23;;;;;;;3.83;1.33;;;;;;;;;;5118538;28;20479;-71
2021/03/06 06:00:50;;;;;;;4.57;2.13;;;;;;;;;;5118617;28;20743;-71
2021/03/06 06:03:19;;;;;;;3.40;1.57;;;;;;;;;;5118384;28;20884;-72
2021/03/06 06:05:46;;;;;;;4.90;2.00;;;;;;;;;;5119066;28;20448;-71
2021/03/06 06:08:15;;;;;;;3.43;1.80;;;;;;;;;;5118747;28;20452;-71
2021/03/06 06:10:43;;;;;;;6.37;2.03;;;;;;;;;;5118834;28;20462;-71
2021/03/06 06:13:11;;;;;;;6.10;2.17;;;;;;;;;;5119659;28;20447;-71
2021/03/06 06:15:38;;;;;;;6.43;2.07;;;;;;;;;;5118632;28;20481;-71
2021/03/06 06:18:06;;;;;;;4.07;1.60;;;;;;;;;;5119892;28;20455;-71
2021/03/06 06:20:38;;;;;;;5.87;2.57;;;;;;;;;;5118959;28;20856;-71
2021/03/06 06:23:13;;;;;;;12.90;2.53;;;;;;;;;;5119117;28;20524;-71
2021/03/06 06:25:41;;;;;;;6.67;2.27;;;;;;;;;;5119488;28;20535;-71
2021/03/06 06:28:09;;;;;;;7.70;2.20;;;;;;;;;;5118017;28;20455;-71
2021/03/06 06:30:40;;;;;;;6.57;1.77;;;;;;;;;;5118609;28;20511;-72
2021/03/06 06:33:09;;;;;;;4.20;1.70;;;;;;;;;;5118523;28;20521;-70
2021/03/06 06:35:43;;;;;;;11.53;2.97;;;;;;;;;;5117706;28;20481;-71
2021/03/06 06:38:10;;;;;;;4.00;2.70;;;;;;;;;;5118949;28;20720;-71
2021/03/06 06:40:38;;;;;;;4.20;2.57;;;;;;;;;;5118084;28;20470;-71
2021/03/06 06:46:00;;;;;;;7.57;2.40;;;;;;;;;;5094971;27;20628;-71
2021/03/06 06:48:27;;;;;;;7.87;2.23;;;;;;;;;;5094225;28;20439;-71
2021/03/06 06:51:06;;;;;;;10.43;2.40;;;;;;;;;;5094915;28;20449;-71
2021/03/06 06:53:34;;;;;;;4.67;1.50;;;;;;;;;;5094340;28;20446;-72
2021/03/06 06:56:02;;;;;;;5.53;2.00;;;;;;;;;;5094229;28;20452;-71
2021/03/06 06:58:35;;;;;;;4.23;1.77;;;;;;;;;;5094475;28;20462;-71
2021/03/06 07:01:24;;;;;;;4.20;2.40;;;;;;;;;;5073996;28;20439;-71
2021/03/06 07:04:00;;;;;;;6.60;2.20;;;;;;;;;;5074029;28;20578;-73
2021/03/06 07:06:27;;;;;;;3.20;2.20;;;;;;;;;;5081916;28;20490;-71
2021/03/06 07:09:05;;;;;;;3.83;1.97;;;;;;;;;;5094572;28;20450;-71
2021/03/06 07:11:32;;;;;;;6.13;2.80;;;;;;;;;;5093390;28;20462;-71
2021/03/06 07:14:00;;;;;;;9.00;2.77;;;;;;;;;;5093714;28;20452;-71
2021/03/06 07:16:50;;;;;;;4.97;2.43;;;;;;;;;;5093976;28;20452;-71
2021/03/06 07:19:17;;;;;;;6.20;2.37;;;;;;;;;;5093654;28;20463;-71
2021/03/06 07:21:48;;;;;;;10.27;3.10;;;;;;;;;;5094599;28;20481;-71
2021/03/06 07:24:16;;;;;;;6.70;4.63;;;;;;;;;;5094189;28;20499;-71
2021/03/06 07:26:43;;;;;;;5.33;2.83;;;;;;;;;;5094809;28;20753;-71
2021/03/06 07:29:11;;;;;;;8.13;2.67;;;;;;;;;;5095119;28;20448;-72
2021/03/06 07:31:40;;;;;;;3.57;3.10;;;;;;;;;;5093402;28;20452;-71
2021/03/06 07:34:09;;;;;;;14.60;3.20;;;;;;;;;;5095138;28;20470;-71
2021/03/06 07:36:38;;;;;;;5.73;2.40;;;;;;;;;;5093718;28;20433;-71
2021/03/06 07:39:07;;;;;;;4.67;2.23;;;;;;;;;;5093328;28;20554;-71
2021/03/06 07:41:38;;;;;;;12.80;2.83;;;;;;;;;;5094467;28;20933;-71
2021/03/06 07:44:07;;;;;;;9.03;3.30;;;;;;;;;;5093408;28;20491;-71
2021/03/06 07:46:38;;;;;;;7.40;2.40;;;;;;;;;;5092632;28;20452;-71
2021/03/06 07:49:12;;;;;;;7.90;2.80;;;;;;;;;;5093092;28;20523;-71
2021/03/06 07:51:43;;;;;;;10.97;2.97;;;;;;;;;;5093075;28;20453;-71
2021/03/06 07:54:13;;;;;;;5.53;2.50;;;;;;;;;;5092468;28;20483;-70
2021/03/06 07:56:50;;;;;;;5.40;2.47;;;;;;;;;;5082917;28;20456;-70
2021/03/06 07:59:21;;;;;;;5.90;2.17;;;;;;;;;;5078372;28;20728;-71
2021/03/06 08:01:49;;;;;;;5.43;2.80;;;;;;;;;;5079763;28;20467;-70
2021/03/06 08:04:39;;;;;;;9.70;3.07;;;;;;;;;;5078920;28;20496;-71
2021/03/06 08:07:15;;;;;;;2.97;2.50;;;;;;;;;;5078769;28;20468;-70
2021/03/06 08:09:57;;;;;;;7.00;4.13;;;;;;;;;;5059635;28;21242;-70
2021/03/06 08:12:33;;;;;;;15.90;3.20;;;;;;;;;;5065197;28;20445;-71
2021/03/06 08:15:01;;;;;;;7.43;3.13;;;;;;;;;;5078335;28;20456;-70
2021/03/06 08:17:41;;;;;;;6.70;3.17;;;;;;;;;;5080106;28;20434;-71
2021/03/06 08:20:35;;;;;;;7.30;3.50;;;;;;;;;;5079614;28;20524;-70
2021/03/06 08:23:22;;;;;;;5.83;3.43;;;;;;;;;;5078333;28;21008;-71
2021/03/06 08:26:10;;;;;;;5.47;3.53;;;;;;;;;;5079425;28;20560;-71
2021/03/06 08:28:41;;;;;;;3.80;2.80;;;;;;;;;;5067538;28;20453;-69
2021/03/06 08:31:29;;;;;;;8.70;2.90;;;;;;;;;;5078549;28;20524;-71
2021/03/06 08:34:34;;;;;;;6.10;2.53;;;;;;;;;;5079021;28;20460;-70
2021/03/06 08:37:21;;;;;;;5.63;3.90;;;;;;;;;;5058790;28;20529;-71
2021/03/06 08:39:52;;;;;;;10.27;3.40;;;;;;;;;;5058276;28;20461;-70
2021/03/06 08:42:20;;;;;;;8.10;2.90;;;;;;;;;;5076877;28;20462;-70
2021/03/06 08:44:50;;;;;;;9.20;2.90;;;;;;;;;;5077345;28;20484;-69
2021/03/06 08:47:21;;;;;;;3.60;2.43;;;;;;;;;;5065941;28;20886;-71
2021/03/06 08:49:55;;;;;;;7.73;2.90;;;;;;;;;;5078783;28;20460;-72
2021/03/06 08:52:26;;;;;;;9.87;5.10;;;;;;;;;;5065488;28;20459;-72
2021/03/06 08:54:55;;;;;;;15.50;4.57;;;;;;;;;;5075422;28;20448;-71
2021/03/06 08:57:23;;;;;;;4.83;3.53;;;;;;;;;;5077477;28;20563;-71
2021/03/06 08:59:53;;;;;;;9.73;4.67;;;;;;;;;;5077809;28;20751;-71
2021/03/06 09:02:22;;;;;;;9.63;4.77;;;;;;;;;;5078131;28;20558;-71
2021/03/06 09:05:05;;;;;;;16.47;3.20;;;;;;;;;;5076018;28;20767;-72
2021/03/06 09:07:37;;;;;;;8.43;4.07;;;;;;;;;;5076889;28;20461;-71
2021/03/06 09:10:20;;;;;;;10.03;3.03;;;;;;;;;;5078970;28;20502;-71
2021/03/06 09:12:49;;;;;;;2.47;1.70;;;;;;;;;;5076727;28;20457;-71
2021/03/06 09:15:33;;;;;;;8.90;2.77;;;;;;;;;;5076265;28;20917;-72
2021/03/06 09:18:01;;;;;;;13.10;3.33;;;;;;;;;;5075705;28;20517;-71
2021/03/06 09:20:29;;;;;;;9.60;3.13;;;;;;;;;;5076680;28;20521;-70
2021/03/06 09:23:27;;;;;;;8.93;2.93;;;;;;;;;;5072140;28;20937;-71
2021/03/06 09:25:56;;;;;;;9.23;3.00;;;;;;;;;;5063360;28;20496;-71
2021/03/06 09:28:29;;;;;;;8.30;3.07;;;;;;;;;;5071916;28;20449;-71
2021/03/06 09:31:03;;;;;;;7.20;3.70;;;;;;;;;;5069989;28;20456;-71
2021/03/06 09:33:31;;;;;;;5.73;2.70;;;;;;;;;;5077467;28;20457;-71
2021/03/06 09:36:02;;;;;;;6.13;2.47;;;;;;;;;;5063875;28;20852;-71
2021/03/06 09:38:29;;;;;;;4.57;2.87;;;;;;;;;;5072441;28;20452;-71
2021/03/06 09:40:58;;;;;;;12.33;2.90;;;;;;;;;;5066665;28;20477;-70
2021/03/06 09:43:30;;;;;;;9.10;3.40;;;;;;;;;;5076295;28;20457;-71
2021/03/06 09:45:58;;;;;;;9.53;3.60;;;;;;;;;;5077042;28;21056;-70
2021/03/06 09:48:26;;;;;;;4.53;2.00;;;;;;;;;;5076229;28;20861;-71
2021/03/06 09:51:06;;;;;;;3.20;2.20;;;;;;;;;;5076785;28;20457;-71
2021/03/06 09:53:41;;;;;;;2.20;1.33;;;;;;;;;;5076667;28;20455;-72
2021/03/06 09:56:11;;;;;;;2.23;1.50;;;;;;;;;;5071882;28;20536;-70
2021/03/06 09:58:42;;;;;;;5.60;2.93;;;;;;;;;;5073213;28;20548;-71
2021/03/06 10:01:16;;;;;;;4.13;2.13;;;;;;;;;;5075091;28;20460;-71
2021/03/06 10:03:44;;;;;;;5.80;2.37;;;;;;;;;;5067170;28;20460;-71
2021/03/06 10:06:14;;;;;;;5.10;1.70;;;;;;;;;;5066792;28;20553;-71
2021/03/06 10:08:55;;;;;;;3.00;2.17;;;;;;;;;;5073747;28;20910;-71
2021/03/06 10:11:29;;;;;;;6.20;2.27;;;;;;;;;;5066917;28;20535;-71
2021/03/06 10:14:10;;;;;;;4.17;1.80;;;;;;;;;;5067704;28;21022;-71
2021/03/06 10:16:48;;;;;;;6.90;2.20;;;;;;;;;;5059362;28;20438;-71
2021/03/06 10:19:19;;;;;;;7.73;2.77;;;;;;;;;;5073929;28;20449;-70
2021/03/06 10:21:58;;;;;;;3.93;1.50;;;;;;;;;;5077048;28;20517;-71
2021/03/06 10:25:03;;;;;;;;;;;;;;;;;;;;;
2021/03/06 10:27:48;;;;;;;6.60;1.60;;;;;;;;;;5028141;28;20471;-71
2021/03/06 10:30:17;;;;;;;4.37;2.13;;;;;;;;;;5057066;28;20450;-70
2021/03/06 10:32:45;;;;;;;2.23;1.53;;;;;;;;;;5065737;28;20603;-72
2021/03/06 10:35:35;;;;;;;4.10;2.00;;;;;;;;;;5071669;28;20457;-69
2021/03/06 10:38:09;;;;;;;6.20;2.87;;;;;;;;;;5061665;28;20449;-70
2021/03/06 10:40:49;;;;;;;2.80;2.03;;;;;;;;;;5073897;28;20453;-75
2021/03/06 10:43:37;;;;;;;12.20;4.40;;;;;;;;;;5072317;28;20451;-71
2021/03/06 10:46:21;;;;;;;7.10;3.90;;;;;;;;;;5075222;28;20488;-70
2021/03/06 10:48:53;;;;;;;11.20;3.50;;;;;;;;;;5076420;28;20470;-71
2021/03/06 10:51:33;;;;;;;14.70;3.40;;;;;;;;;;5076484;28;20456;-71
2021/03/06 10:54:05;;;;;;;6.37;2.83;;;;;;;;;;5074127;28;20471;-70
2021/03/06 10:56:33;;;;;;;4.03;1.97;;;;;;;;;;5055916;28;20536;-71
2021/03/06 10:59:16;;;;;;;6.50;2.70;;;;;;;;;;5061933;28;20790;-72
2021/03/06 11:01:48;;;;;;;5.77;2.53;;;;;;;;;;5056798;28;20881;-71
2021/03/06 11:04:30;;;;;;;6.23;2.50;;;;;;;;;;5073584;28;20481;-70
2021/03/06 11:07:00;;;;;;;5.20;2.53;;;;;;;;;;5076012;28;20461;-71
2021/03/06 11:09:28;;;;;;;5.20;2.67;;;;;;;;;;5075438;28;20477;-71
2021/03/06 11:11:56;;;;;;;5.73;2.20;;;;;;;;;;5076207;28;20467;-72
2021/03/06 11:14:34;;;;;;;3.17;1.93;;;;;;;;;;5068694;28;20449;-72
2021/03/06 11:17:04;;;;;;;3.07;1.60;;;;;;;;;;5075232;28;21056;-72
2021/03/06 11:19:34;;;;;;;2.93;1.90;;;;;;;;;;5076109;28;20460;-72
2021/03/06 11:22:01;;;;;;;2.53;1.90;;;;;;;;;;5075941;28;20584;-72
2021/03/06 11:24:29;;;;;;;3.20;1.80;;;;;;;;;;5065314;28;20522;-71
2021/03/06 11:26:59;;;;;;;7.80;2.20;;;;;;;;;;5076012;28;20453;-71
2021/03/06 11:29:37;;;;;;;4.70;2.37;;;;;;;;;;5076206;28;21005;-71
2021/03/06 11:32:20;;;;;;;8.60;2.97;;;;;;;;;;5079500;28;20510;-71
2021/03/06 11:34:50;;;;;;;8.43;3.13;;;;;;;;;;5064439;28;20458;-71
2021/03/06 11:37:17;;;;;;;5.33;2.50;;;;;;;;;;5075241;28;20481;-71
2021/03/06 11:39:45;;;;;;;4.43;2.67;;;;;;;;;;5072738;28;20890;-71
2021/03/06 11:42:15;;;;;;;6.60;2.80;;;;;;;;;;5074878;28;20488;-71
2021/03/06 11:44:46;;;;;;;2.87;2.30;;;;;;;;;;5063083;28;21047;-70
2021/03/06 11:47:15;;;;;;;4.10;2.47;;;;;;;;;;5063186;28;20498;-71
2021/03/06 11:49:45;;;;;;;6.43;2.80;;;;;;;;;;5069584;28;20454;-70
2021/03/06 11:52:13;;;;;;;4.47;2.43;;;;;;;;;;5059111;28;20451;-70
2021/03/06 11:54:50;;;;;;;4.27;2.27;;;;;;;;;;5080509;28;20441;-71
2021/03/06 11:57:34;;;;;;;5.13;2.63;;;;;;;;;;5078566;28;20547;-70
2021/03/06 12:00:07;;;;;;;4.67;2.70;;;;;;;;;;5067543;28;20480;-71
2021/03/06 12:02:34;;;;;;;5.67;3.00;;;;;;;;;;5080104;28;20470;-71
2021/03/06 12:05:14;;;;;;;5.90;2.80;;;;;;;;;;5077953;28;20493;-70
2021/03/06 12:07:42;;;;;;;5.97;3.30;;;;;;;;;;5078610;28;20536;-70
2021/03/06 12:10:10;;;;;;;7.63;3.30;;;;;;;;;;5080514;28;20938;-70
2021/03/06 12:12:38;;;;;;;4.57;3.40;;;;;;;;;;5074373;28;20495;-70
2021/03/06 12:15:07;;;;;;;8.63;3.60;;;;;;;;;;5079884;28;20449;-70
2021/03/06 12:17:35;;;;;;;5.30;3.23;;;;;;;;;;5077176;28;20467;-70
2021/03/06 12:20:07;;;;;;;6.50;2.80;;;;;;;;;;5078759;28;20585;-70
2021/03/06 12:22:35;;;;;;;6.30;2.67;;;;;;;;;;5059178;28;20562;-70
2021/03/06 12:25:03;;;;;;;4.10;2.80;;;;;;;;;;5061188;28;20485;-71
2021/03/06 12:27:30;;;;;;;4.20;3.03;;;;;;;;;;5077838;28;20465;-71
2021/03/06 12:30:08;;;;;;;6.30;3.70;;;;;;;;;;5069165;28;20451;-71
2021/03/06 12:32:47;;;;;;;4.07;2.07;;;;;;;;;;5090732;28;20460;-72
2021/03/06 12:35:18;;;;;;;5.27;2.63;;;;;;;;;;5079396;28;20543;-70
2021/03/06 12:37:46;;;;;;;3.63;2.67;;;;;;;;;;5079012;28;20473;-71
2021/03/06 12:40:14;;;;;;;9.70;2.10;;;;;;;;;;5060304;28;20454;-70
2021/03/06 12:42:42;;;;;;;4.63;2.53;;;;;;;;;;5069028;28;20445;-70
2021/03/06 12:45:11;;;;;;;9.60;3.00;;;;;;;;;;5058199;28;20482;-72
2021/03/06 12:47:51;;;;;;;6.03;2.70;;;;;;;;;;5065518;28;20457;-70
2021/03/06 12:50:19;;;;;;;4.10;2.60;;;;;;;;;;5077597;28;20446;-71
2021/03/06 12:52:50;;;;;;;10.43;2.70;;;;;;;;;;5077182;28;20462;-71
2021/03/06 12:55:21;;;;;;;6.03;3.47;;;;;;;;;;5074296;28;20538;-71
2021/03/06 12:57:51;;;;;;;4.53;1.93;;;;;;;;;;5077650;28;20469;-71
2021/03/06 13:00:20;;;;;;;2.40;1.87;;;;;;;;;;5078948;28;20514;-71
2021/03/06 13:02:48;;;;;;;12.33;1.80;;;;;;;;;;5077070;28;20548;-72
2021/03/06 13:05:16;;;;;;;3.63;1.67;;;;;;;;;;5064107;28;20928;-71
2021/03/06 13:07:44;;;;;;;5.93;2.20;;;;;;;;;;5057387;28;20449;-71
2021/03/06 13:10:12;;;;;;;5.30;1.60;;;;;;;;;;5058696;28;20872;-71
2021/03/06 13:12:49;;;;;;;3.90;1.80;;;;;;;;;;5056570;28;20474;-68
2021/03/06 13:15:17;;;;;;;3.60;2.00;;;;;;;;;;5069942;28;20773;-70
2021/03/06 13:17:44;;;;;;;4.20;2.53;;;;;;;;;;5078553;28;20509;-71
2021/03/06 13:20:12;;;;;;;2.40;1.93;;;;;;;;;;5074798;28;20503;-70
2021/03/06 13:22:43;;;;;;;7.27;2.53;;;;;;;;;;5058630;28;20853;-70
2021/03/06 13:25:11;;;;;;;4.60;1.90;;;;;;;;;;5062138;28;20489;-71
2021/03/06 13:27:40;;;;;;;6.67;2.60;;;;;;;;;;5076483;28;20449;-70
2021/03/06 13:30:09;;;;;;;5.30;2.77;;;;;;;;;;5078216;28;20853;-71
2021/03/06 13:32:37;;;;;;;2.63;1.83;;;;;;;;;;5078029;28;20473;-71
2021/03/06 13:35:04;;;;;;;4.50;2.80;;;;;;;;;;5075945;28;20452;-71
2021/03/06 13:37:32;;;;;;;3.40;2.57;;;;;;;;;;5077677;28;20459;-70
2021/03/06 13:39:59;;;;;;;2.40;1.63;;;;;;;;;;5076568;28;20469;-71
2021/03/06 13:42:31;;;;;;;5.30;2.57;;;;;;;;;;5077142;28;20451;-70
2021/03/06 13:44:59;;;;;;;2.83;1.53;;;;;;;;;;5077141;28;20486;-70
2021/03/06 13:47:26;;;;;;;7.10;1.43;;;;;;;;;;5075592;28;21030;-70
2021/03/06 13:49:54;;;;;;;6.80;2.00;;;;;;;;;;5077871;28;20489;-70
2021/03/06 13:52:21;;;;;;;4.50;1.27;;;;;;;;;;5077422;28;20939;-70
2021/03/06 13:54:48;;;;;;;2.70;0.90;;;;;;;;;;5073992;28;20446;-70
2021/03/06 13:57:16;;;;;;;2.10;1.00;;;;;;;;;;5075006;28;20503;-70
2021/03/06 13:59:44;;;;;;;1.43;0.53;;;;;;;;;;5074813;28;20451;-70
2021/03/06 14:02:11;;;;;;;2.60;1.07;;;;;;;;;;5075724;28;20523;-70
2021/03/06 14:04:39;;;;;;;4.37;1.80;;;;;;;;;;5077308;28;20481;-71
2021/03/06 14:07:06;;;;;;;4.70;1.27;;;;;;;;;;5075853;28;20479;-71
2021/03/06 14:09:33;;;;;;;4.83;1.53;;;;;;;;;;5077009;28;20817;-71
2021/03/06 14:12:01;;;;;;;3.20;0.93;;;;;;;;;;5076007;28;20490;-70
2021/03/06 14:14:29;;;;;;;4.73;1.40;;;;;;;;;;5076030;28;20529;-71
2021/03/06 14:16:57;;;;;;;4.00;1.00;;;;;;;;;;5076278;28;20468;-71
2021/03/06 14:19:25;;;;;;;5.63;1.20;;;;;;;;;;5074553;28;20619;-70
2021/03/06 14:21:52;;;;;;;4.43;1.60;;;;;;;;;;5075829;28;20545;-70
2021/03/06 14:24:20;;;;;;;3.40;1.80;;;;;;;;;;5076743;28;20446;-71
2021/03/06 14:26:48;;;;;;;4.47;1.30;;;;;;;;;;5075434;28;20458;-70
2021/03/06 14:29:15;;;;;;;2.10;1.30;;;;;;;;;;5076400;28;20465;-70
2021/03/06 14:31:51;;;;;;;6.47;2.27;;;;;;;;;;5072199;28;20461;-70
2021/03/06 14:34:20;;;;;;;2.47;0.83;;;;;;;;;;5072344;28;20445;-70
2021/03/06 14:39:50;;;;;;;;;;;;;;;;;;;;;
2021/03/06 14:42:26;;;;;;;6.40;2.30;;;;;;;;;;5074277;28;20462;-70
2021/03/06 14:44:59;;;;;;;2.90;1.30;;;;;;;;;;5055930;28;20565;-70
2021/03/06 14:47:29;;;;;;;4.50;1.10;;;;;;;;;;5072056;28;20476;-70
2021/03/06 14:50:05;;;;;;;3.50;1.00;;;;;;;;;;5077550;28;20445;-70
2021/03/06 14:52:34;;;;;;;2.70;1.10;;;;;;;;;;5074330;28;20453;-69
2021/03/06 14:55:22;;;;;;;2.90;1.60;;;;;;;;;;5077392;28;20458;-71
2021/03/06 14:58:25;;;;;;;4.30;1.10;;;;;;;;;;5076548;28;20452;-70
2021/03/06 15:00:57;;;;;;;4.30;1.03;;;;;;;;;;5074751;28;20786;-70
2021/03/06 15:03:27;;;;;;;3.30;0.90;;;;;;;;;;5058117;28;21055;-70
2021/03/06 15:06:01;;;;;;;2.60;0.90;;;;;;;;;;5076273;28;20488;-71
2021/03/06 15:08:38;;;;;;;2.80;1.20;;;;;;;;;;5078228;28;20457;-71
2021/03/06 15:11:10;;;;;;;3.40;1.00;;;;;;;;;;5063974;28;20456;-69
2021/03/06 15:13:41;;;;;;;5.27;1.70;;;;;;;;;;5079032;28;20429;-70